Time;durP1;ratioP1;P1;durP2;ratioP2;P2;SDS_P1;SDS_P2;PMS_P1;PMS_P2;Temp;Humidity;BMP_temperature;BMP_pressure;BME280_temperature;BME280_humidity;BME280_pressure;Samples;Min_cycle;Max_cycle;Signal;HPM_P1;HPM_P2
2022/11/28 00:01:59;;;;;;;14.10;11.43;;;7.10;99.90;;;;;;5030789;28;20220;-81
2022/11/28 00:04:26;;;;;;;22.40;15.07;;;7.10;99.90;;;;;;5022205;28;20222;-82
2022/11/28 00:06:53;;;;;;;19.60;15.20;;;7.10;99.90;;;;;;5024378;28;20571;-80
2022/11/28 00:12:36;;;;;;;17.17;13.73;;;7.10;99.90;;;;;;5006474;28;20224;-82
2022/11/28 00:15:03;;;;;;;17.60;14.25;;;7.00;99.90;;;;;;5029051;28;20252;-83
2022/11/28 00:17:30;;;;;;;17.35;14.13;;;7.00;99.90;;;;;;5040353;28;20228;-82
2022/11/28 00:20:00;;;;;;;21.52;14.23;;;6.90;99.90;;;;;;5052337;28;20259;-82
2022/11/28 00:22:28;;;;;;;17.50;13.25;;;7.00;99.90;;;;;;5051548;28;20229;-82
2022/11/28 00:24:55;;;;;;;21.33;15.55;;;6.90;99.90;;;;;;5055345;28;20286;-80
2022/11/28 00:27:24;;;;;;;15.73;14.02;;;6.80;99.90;;;;;;5051341;28;20561;-80
2022/11/28 00:29:51;;;;;;;18.38;13.95;;;6.80;99.90;;;;;;5053273;28;20240;-81
2022/11/28 00:32:18;;;;;;;14.88;13.32;;;6.90;99.90;;;;;;5049361;28;20534;-82
2022/11/28 00:34:47;;;;;;;18.63;14.70;;;6.90;99.90;;;;;;5052379;28;20551;-80
2022/11/28 00:37:17;;;;;;;18.10;15.07;;;6.90;99.90;;;;;;5048851;28;20274;-81
2022/11/28 00:39:45;;;;;;;20.90;13.50;;;6.90;99.90;;;;;;5047048;28;20237;-83
2022/11/28 00:42:15;;;;;;;21.30;16.90;;;6.90;99.90;;;;;;5049408;28;20274;-83
2022/11/28 00:44:43;;;;;;;18.67;16.30;;;6.90;99.90;;;;;;5051991;28;20225;-80
2022/11/28 00:47:10;;;;;;;27.42;18.85;;;6.90;99.90;;;;;;5053878;28;20309;-80
2022/11/28 00:49:39;;;;;;;26.75;16.23;;;6.90;99.90;;;;;;5054133;28;20233;-79
2022/11/28 00:52:06;;;;;;;18.95;15.45;;;6.90;99.90;;;;;;5048309;28;20225;-82
2022/11/28 00:54:33;;;;;;;22.48;16.65;;;6.80;99.90;;;;;;5040132;28;20623;-82
2022/11/28 00:57:01;;;;;;;23.60;16.13;;;6.90;99.90;;;;;;5045091;28;20672;-81
2022/11/28 00:59:27;;;;;;;22.95;15.15;;;6.80;99.90;;;;;;5050550;28;20220;-81
2022/11/28 01:01:56;;;;;;;27.05;18.73;;;6.80;99.90;;;;;;5054623;28;20650;-82
2022/11/28 01:04:23;;;;;;;23.15;17.73;;;6.80;99.90;;;;;;5053447;28;20263;-80
2022/11/28 01:06:51;;;;;;;19.00;15.43;;;6.80;99.90;;;;;;5053568;28;20252;-79
2022/11/28 01:09:24;;;;;;;27.98;19.52;;;6.70;99.90;;;;;;5049479;28;20233;-82
2022/11/28 01:11:54;;;;;;;23.98;19.63;;;6.80;99.90;;;;;;5050017;28;20236;-80
2022/11/28 01:14:23;;;;;;;20.88;17.25;;;6.80;99.90;;;;;;5051587;28;20541;-80
2022/11/28 01:16:53;;;;;;;21.73;17.77;;;6.70;99.90;;;;;;5051791;28;20603;-80
2022/11/28 01:19:22;;;;;;;23.20;17.65;;;6.70;99.90;;;;;;5052362;28;20692;-79
2022/11/28 01:21:50;;;;;;;24.02;17.40;;;6.80;99.90;;;;;;5054191;28;20300;-81
2022/11/28 01:24:18;;;;;;;23.02;18.65;;;6.70;99.90;;;;;;5042363;28;20220;-79
2022/11/28 01:26:45;;;;;;;18.17;15.93;;;6.70;99.90;;;;;;5043019;28;20221;-79
2022/11/28 01:29:12;;;;;;;18.63;15.30;;;6.60;99.90;;;;;;5033522;28;20604;-80
2022/11/28 01:31:40;;;;;;;21.55;15.95;;;6.60;99.90;;;;;;5052474;28;20231;-79
2022/11/28 01:34:08;;;;;;;19.92;16.05;;;6.60;99.90;;;;;;5051159;28;20231;-79
2022/11/28 01:36:36;;;;;;;20.88;16.60;;;6.60;99.90;;;;;;5027670;28;20212;-81
2022/11/28 01:39:30;;;;;;;25.60;18.02;;;6.60;99.90;;;;;;5054418;28;20232;-79
2022/11/28 01:41:57;;;;;;;23.75;19.67;;;6.60;99.90;;;;;;5041537;28;20255;-82
2022/11/28 01:45:04;;;;;;;19.83;15.30;;;6.50;99.90;;;;;;5043667;28;20678;-80
2022/11/28 01:47:32;;;;;;;21.42;16.15;;;6.50;99.90;;;;;;5044204;28;20660;-83
2022/11/28 01:50:00;;;;;;;18.75;14.30;;;6.50;99.90;;;;;;5042290;28;20303;-82
2022/11/28 01:52:31;;;;;;;21.20;14.95;;;6.40;99.90;;;;;;5038558;28;20228;-82
2022/11/28 01:55:00;;;;;;;18.02;15.52;;;6.40;99.90;;;;;;5043114;28;20263;-79
2022/11/28 01:57:29;;;;;;;19.45;16.10;;;6.50;99.90;;;;;;5053345;28;20286;-79
2022/11/28 02:00:00;;;;;;;21.60;15.68;;;6.50;99.90;;;;;;5046178;28;20252;-79
2022/11/28 02:02:33;;;;;;;20.83;16.15;;;6.50;99.90;;;;;;5048006;28;20228;-82
2022/11/28 02:05:04;;;;;;;21.52;16.17;;;6.60;99.90;;;;;;5048700;28;20221;-80
2022/11/28 02:07:33;;;;;;;18.40;14.80;;;6.60;99.90;;;;;;5050742;28;20301;-80
2022/11/28 02:10:02;;;;;;;24.25;16.15;;;6.60;99.90;;;;;;5053672;28;20232;-79
2022/11/28 02:12:41;;;;;;;21.08;15.75;;;6.50;99.90;;;;;;5052319;28;20231;-81
2022/11/28 02:15:22;;;;;;;13.82;12.13;;;6.60;99.90;;;;;;5050352;28;20302;-81
2022/11/28 02:18:02;;;;;;;13.88;12.43;;;6.70;99.90;;;;;;5044466;28;20302;-81
2022/11/28 02:20:56;;;;;;;21.05;14.00;;;6.60;99.90;;;;;;5052071;28;20247;-82
2022/11/28 02:23:38;;;;;;;14.10;12.20;;;6.60;99.90;;;;;;5056716;28;20224;-82
2022/11/28 02:26:44;;;;;;;18.92;12.52;;;6.50;99.90;;;;;;5046118;28;20304;-83
2022/11/28 02:29:47;;;;;;;20.00;15.13;;;6.50;99.90;;;;;;5033744;28;20234;-82
2022/11/28 02:32:26;;;;;;;16.55;14.10;;;6.40;99.90;;;;;;5051517;28;20236;-82
2022/11/28 02:35:00;;;;;;;16.95;14.00;;;6.50;99.90;;;;;;5050073;28;20260;-83
2022/11/28 02:37:37;;;;;;;16.08;14.38;;;6.50;99.90;;;;;;5056575;28;20279;-83
2022/11/28 02:40:12;;;;;;;16.95;15.05;;;6.40;99.90;;;;;;5038636;28;20232;-81
2022/11/28 02:42:52;;;;;;;20.00;16.23;;;6.50;99.90;;;;;;5047734;28;20323;-80
2022/11/28 02:45:27;;;;;;;19.67;15.00;;;6.50;99.90;;;;;;5055543;28;20284;-82
2022/11/28 02:48:03;;;;;;;19.92;15.85;;;6.50;99.90;;;;;;5061686;28;20247;-82
2022/11/28 02:50:35;;;;;;;17.50;15.05;;;6.50;99.90;;;;;;5055053;28;20239;-83
2022/11/28 02:53:09;;;;;;;16.67;13.77;;;6.50;99.90;;;;;;5051988;28;20317;-82
2022/11/28 02:55:39;;;;;;;18.10;15.20;;;6.50;99.90;;;;;;5055876;28;20298;-81
2022/11/28 02:58:06;;;;;;;17.48;15.43;;;6.50;99.90;;;;;;5048539;28;20217;-82
2022/11/28 03:00:36;;;;;;;17.45;14.88;;;6.50;99.90;;;;;;5039983;28;20328;-79
2022/11/28 03:03:28;;;;;;;18.08;13.75;;;6.40;99.90;;;;;;5036211;28;20317;-79
2022/11/28 03:06:01;;;;;;;17.83;13.65;;;6.40;99.90;;;;;;5033877;28;20256;-82
2022/11/28 03:08:47;;;;;;;14.20;11.88;;;6.40;99.90;;;;;;5034376;28;20251;-82
2022/11/28 03:11:20;;;;;;;23.27;15.00;;;6.30;99.90;;;;;;5045706;28;20311;-82
2022/11/28 03:13:54;;;;;;;17.92;14.13;;;6.30;99.90;;;;;;5034114;28;20221;-82
2022/11/28 03:16:29;;;;;;;21.27;15.45;;;6.30;99.90;;;;;;5053566;28;20231;-82
2022/11/28 03:19:08;;;;;;;19.75;14.05;;;6.30;99.90;;;;;;5052767;28;20567;-79
2022/11/28 03:21:41;;;;;;;18.02;13.90;;;6.30;99.90;;;;;;5040830;28;20242;-80
2022/11/28 03:24:23;;;;;;;20.95;14.75;;;6.20;99.90;;;;;;5052390;28;20227;-79
2022/11/28 03:26:57;;;;;;;16.05;13.77;;;6.20;99.90;;;;;;5052045;28;20228;-83
2022/11/28 03:29:39;;;;;;;16.65;13.25;;;6.00;99.90;;;;;;5053390;28;20236;-83
2022/11/28 03:32:10;;;;;;;18.73;14.25;;;6.00;99.90;;;;;;5052132;28;20286;-80
2022/11/28 03:34:43;;;;;;;17.65;13.85;;;6.00;99.90;;;;;;5044667;28;20228;-83
2022/11/28 03:37:14;;;;;;;21.85;15.27;;;6.00;99.90;;;;;;5059367;28;20323;-82
2022/11/28 03:39:46;;;;;;;24.45;17.15;;;6.00;99.90;;;;;;5052062;28;20232;-83
2022/11/28 03:42:20;;;;;;;17.98;14.77;;;6.00;99.90;;;;;;5025779;28;20247;-80
2022/11/28 03:44:54;;;;;;;20.90;14.15;;;6.10;99.90;;;;;;5053390;28;20678;-83
2022/11/28 03:47:23;;;;;;;18.05;14.52;;;6.10;99.90;;;;;;5052755;28;20243;-83
2022/11/28 03:49:56;;;;;;;18.63;14.55;;;6.10;99.90;;;;;;5052763;28;20236;-82
2022/11/28 03:52:29;;;;;;;19.15;14.20;;;6.10;99.90;;;;;;5053381;28;20650;-82
2022/11/28 03:55:01;;;;;;;17.05;12.90;;;6.00;99.90;;;;;;5040495;28;20307;-80
2022/11/28 03:57:39;;;;;;;19.48;15.88;;;6.10;99.90;;;;;;5042818;28;20236;-80
2022/11/28 04:00:09;;;;;;;19.63;15.02;;;6.10;99.90;;;;;;5054047;28;20228;-83
2022/11/28 04:02:45;;;;;;;19.77;14.80;;;6.10;99.90;;;;;;5052433;28;20237;-83
2022/11/28 04:05:20;;;;;;;19.88;15.38;;;6.00;99.90;;;;;;5052643;28;20303;-83
2022/11/28 04:08:23;;;;;;;21.77;15.05;;;6.00;99.90;;;;;;5053000;28;20223;-83
2022/11/28 04:10:57;;;;;;;22.67;16.48;;;6.10;99.90;;;;;;5043774;28;20220;-81
2022/11/28 04:13:32;;;;;;;22.67;16.15;;;6.10;99.90;;;;;;5053748;28;20228;-83
2022/11/28 04:16:04;;;;;;;18.98;14.93;;;6.10;99.90;;;;;;5054102;28;20248;-83
2022/11/28 04:18:38;;;;;;;23.15;16.85;;;6.10;99.90;;;;;;5044577;28;20224;-80
2022/11/28 04:21:12;;;;;;;22.15;15.60;;;6.10;99.90;;;;;;5046095;28;20233;-81
2022/11/28 04:23:42;;;;;;;19.75;15.50;;;6.10;99.90;;;;;;5055245;28;20300;-83
2022/11/28 04:26:14;;;;;;;27.02;16.90;;;6.10;99.90;;;;;;5051877;28;20225;-82
2022/11/28 04:28:42;;;;;;;22.60;15.23;;;6.10;99.90;;;;;;5052940;28;20252;-80
2022/11/28 04:31:11;;;;;;;19.75;15.60;;;6.10;99.90;;;;;;5051426;28;20224;-80
2022/11/28 04:33:43;;;;;;;17.02;14.10;;;6.10;99.90;;;;;;5051799;28;20229;-80
2022/11/28 04:36:16;;;;;;;20.42;14.63;;;6.10;99.90;;;;;;5051490;28;20263;-80
2022/11/28 04:38:55;;;;;;;22.13;15.52;;;6.10;99.90;;;;;;5043433;28;20704;-80
2022/11/28 04:41:26;;;;;;;22.48;15.73;;;6.20;99.90;;;;;;5055452;28;20622;-82
2022/11/28 04:44:04;;;;;;;20.75;15.35;;;6.30;99.90;;;;;;5056162;28;20246;-83
2022/11/28 04:46:38;;;;;;;23.25;15.23;;;6.30;99.90;;;;;;5055524;28;20221;-80
2022/11/28 04:49:05;;;;;;;22.00;15.15;;;6.20;99.90;;;;;;5055997;28;20297;-83
2022/11/28 04:51:42;;;;;;;23.38;15.05;;;6.10;99.90;;;;;;5056198;28;20224;-83
2022/11/28 04:54:14;;;;;;;20.20;15.60;;;6.10;99.90;;;;;;5055387;28;20293;-83
2022/11/28 04:56:45;;;;;;;19.58;15.25;;;6.00;99.90;;;;;;5056272;28;20240;-82
2022/11/28 04:59:16;;;;;;;20.75;15.00;;;6.10;99.90;;;;;;5044763;28;20701;-82
2022/11/28 05:01:46;;;;;;;25.08;16.52;;;6.10;99.90;;;;;;5055109;28;20225;-82
2022/11/28 05:04:15;;;;;;;19.95;16.33;;;6.10;99.90;;;;;;5056300;28;20304;-83
2022/11/28 05:06:44;;;;;;;19.05;14.73;;;6.10;99.90;;;;;;5054949;28;20225;-83
2022/11/28 05:09:54;;;;;;;20.40;15.55;;;6.10;99.90;;;;;;5055216;28;20252;-83
2022/11/28 05:12:34;;;;;;;22.35;15.13;;;6.20;99.90;;;;;;5043941;28;20235;-80
2022/11/28 05:15:01;;;;;;;18.90;14.43;;;6.20;99.90;;;;;;5054899;28;20236;-80
2022/11/28 05:17:28;;;;;;;18.45;14.75;;;6.30;99.90;;;;;;5056256;28;20236;-83
2022/11/28 05:19:55;;;;;;;19.25;13.98;;;6.30;99.90;;;;;;5057433;28;20308;-82
2022/11/28 05:22:26;;;;;;;19.95;13.18;;;6.20;99.90;;;;;;5056266;28;20225;-82
2022/11/28 05:24:53;;;;;;;22.98;15.73;;;6.20;99.90;;;;;;5057627;28;20264;-83
2022/11/28 05:27:24;;;;;;;19.55;14.48;;;6.20;99.90;;;;;;5057396;28;20685;-83
2022/11/28 05:29:53;;;;;;;22.02;15.50;;;6.30;99.90;;;;;;5057207;28;20229;-80
2022/11/28 05:32:20;;;;;;;21.05;15.70;;;6.30;99.90;;;;;;5057697;28;20685;-83
2022/11/28 05:34:50;;;;;;;24.48;16.65;;;6.20;99.90;;;;;;5057552;28;20266;-83
2022/11/28 05:37:19;;;;;;;19.48;15.85;;;6.30;99.90;;;;;;5045224;28;20224;-80
2022/11/28 05:39:53;;;;;;;18.20;12.95;;;6.30;99.90;;;;;;5056614;28;20282;-82
2022/11/28 05:42:20;;;;;;;21.40;15.27;;;6.30;99.90;;;;;;5055072;28;20236;-82
2022/11/28 05:44:48;;;;;;;19.73;14.63;;;6.30;99.90;;;;;;5045193;28;20228;-80
2022/11/28 05:47:16;;;;;;;17.40;13.82;;;6.20;99.90;;;;;;5055450;28;20263;-82
2022/11/28 05:49:47;;;;;;;19.17;15.07;;;6.30;99.90;;;;;;5044257;28;20523;-83
2022/11/28 05:52:14;;;;;;;22.02;16.15;;;6.30;99.90;;;;;;5056570;28;20255;-83
2022/11/28 05:54:44;;;;;;;24.77;14.88;;;6.30;99.90;;;;;;5045621;28;20239;-81
2022/11/28 05:57:12;;;;;;;18.58;15.63;;;6.30;99.90;;;;;;5036170;28;20237;-83
2022/11/28 05:59:42;;;;;;;23.10;14.82;;;6.30;99.90;;;;;;5053352;28;20628;-80
2022/11/28 06:02:09;;;;;;;21.02;14.95;;;6.20;99.90;;;;;;5055244;28;20229;-80
2022/11/28 06:04:36;;;;;;;21.17;15.23;;;6.30;99.90;;;;;;5054871;28;20228;-79
2022/11/28 06:07:06;;;;;;;20.02;14.90;;;6.30;99.90;;;;;;5055573;28;20286;-82
2022/11/28 06:09:34;;;;;;;21.90;14.10;;;6.30;99.90;;;;;;5054898;28;20230;-81
2022/11/28 06:12:05;;;;;;;18.60;14.70;;;6.30;99.90;;;;;;5055544;28;21089;-80
2022/11/28 06:14:37;;;;;;;19.77;14.52;;;6.30;99.90;;;;;;5055574;28;20251;-81
2022/11/28 06:17:08;;;;;;;22.38;16.52;;;6.20;99.90;;;;;;5055295;28;20340;-81
2022/11/28 06:19:36;;;;;;;17.30;14.95;;;6.10;99.90;;;;;;5055019;28;20261;-80
2022/11/28 06:22:06;;;;;;;23.27;17.63;;;6.00;99.90;;;;;;5039709;28;20218;-80
2022/11/28 06:24:33;;;;;;;22.77;17.00;;;6.00;99.90;;;;;;5057419;28;20629;-80
2022/11/28 06:27:03;;;;;;;21.08;16.27;;;6.00;99.90;;;;;;5059324;28;20346;-80
2022/11/28 06:29:30;;;;;;;17.77;15.43;;;6.00;99.90;;;;;;5058151;28;20228;-80
2022/11/28 06:32:01;;;;;;;22.90;16.88;;;6.00;99.90;;;;;;5057330;28;20225;-80
2022/11/28 06:34:31;;;;;;;26.55;16.83;;;6.00;99.90;;;;;;5061393;28;20221;-82
2022/11/28 06:37:12;;;;;;;26.42;15.93;;;6.00;99.90;;;;;;5062158;28;20312;-79
2022/11/28 06:39:50;;;;;;;;;;;;;;;;;;;;;
2022/11/28 06:42:20;;;;;;;23.10;16.35;;;6.00;99.90;;;;;;5059537;28;20275;-81
2022/11/28 06:44:47;;;;;;;20.58;15.57;;;6.00;99.90;;;;;;5059185;28;20353;-80
2022/11/28 06:47:17;;;;;;;22.55;17.58;;;6.10;99.90;;;;;;5059869;28;20235;-80
2022/11/28 06:49:45;;;;;;;26.17;16.63;;;6.10;99.90;;;;;;5199030;22;20698;-81
2022/11/28 06:52:12;;;;;;;22.67;15.85;;;6.10;99.90;;;;;;5063732;28;20240;-79
2022/11/28 06:54:40;;;;;;;24.52;16.27;;;6.10;99.90;;;;;;5057625;28;20282;-81
2022/11/28 06:57:07;;;;;;;20.73;16.38;;;6.00;99.90;;;;;;5066502;28;20252;-83
2022/11/28 06:59:34;;;;;;;21.38;15.93;;;6.00;99.90;;;;;;5065279;28;20240;-83
2022/11/28 07:02:02;;;;;;;20.75;15.82;;;6.00;99.90;;;;;;5062384;28;20570;-80
2022/11/28 07:04:30;;;;;;;21.02;17.48;;;6.00;99.90;;;;;;5042573;28;20233;-80
2022/11/28 07:06:58;;;;;;;20.80;16.80;;;5.90;99.90;;;;;;5056742;28;20224;-80
2022/11/28 07:09:29;;;;;;;23.80;16.98;;;5.90;99.90;;;;;;5056822;28;20233;-80
2022/11/28 07:12:01;;;;;;;27.15;19.25;;;5.80;99.90;;;;;;5057491;28;20281;-81
2022/11/28 07:14:34;;;;;;;22.98;17.05;;;5.90;99.90;;;;;;5054852;28;20231;-80
2022/11/28 07:20:22;;;;;;;24.58;18.08;;;5.80;99.90;;;;;;5008627;28;20225;-83
2022/11/28 07:22:49;;;;;;;26.67;18.65;;;5.80;99.90;;;;;;5054442;28;20232;-83
2022/11/28 07:25:18;;;;;;;22.60;17.45;;;5.80;99.90;;;;;;5054392;28;20220;-83
2022/11/28 07:27:48;;;;;;;24.88;17.58;;;5.80;99.90;;;;;;5053915;28;20323;-80
2022/11/28 07:30:15;;;;;;;28.08;18.30;;;5.80;99.90;;;;;;5036054;28;20319;-80
2022/11/28 07:32:52;;;;;;;32.22;22.02;;;5.80;99.90;;;;;;5055492;28;20220;-83
2022/11/28 07:35:31;;;;;;;28.48;17.80;;;5.80;99.90;;;;;;5057740;28;20220;-83
2022/11/28 07:38:05;;;;;;;22.83;17.10;;;5.80;99.90;;;;;;5052621;28;20289;-81
2022/11/28 07:40:34;;;;;;;22.48;18.17;;;5.80;99.90;;;;;;5056392;28;20307;-81
2022/11/28 07:43:01;;;;;;;27.00;18.73;;;5.90;99.90;;;;;;5055199;28;20252;-79
2022/11/28 07:45:28;;;;;;;31.48;25.80;;;5.90;99.90;;;;;;5055248;28;20220;-81
2022/11/28 07:47:56;;;;;;;29.42;19.63;;;5.90;99.90;;;;;;5056735;28;20247;-82
2022/11/28 07:50:33;;;;;;;25.95;18.33;;;6.00;99.90;;;;;;5061389;28;20228;-82
2022/11/28 07:53:00;;;;;;;26.55;18.95;;;6.00;99.90;;;;;;5079058;28;20685;-80
2022/11/28 07:55:29;;;;;;;29.40;17.85;;;6.10;99.90;;;;;;5078180;28;20228;-80
2022/11/28 07:57:57;;;;;;;24.10;17.70;;;6.30;99.90;;;;;;5079612;28;20224;-83
2022/11/28 08:00:24;;;;;;;24.88;18.88;;;6.20;99.90;;;;;;5077756;28;20231;-82
2022/11/28 08:02:51;;;;;;;24.88;17.42;;;6.20;99.90;;;;;;5081518;28;20228;-83
2022/11/28 08:05:22;;;;;;;27.60;19.95;;;6.30;99.90;;;;;;5071788;28;20251;-82
2022/11/28 08:07:54;;;;;;;24.73;17.00;;;6.30;99.90;;;;;;5078340;28;20227;-82
2022/11/28 08:10:23;;;;;;;23.38;17.00;;;6.30;99.90;;;;;;5067713;28;20646;-82
2022/11/28 08:12:51;;;;;;;21.17;16.95;;;6.30;99.90;;;;;;5080454;28;20259;-83
2022/11/28 08:15:18;;;;;;;22.80;16.98;;;6.30;99.90;;;;;;5081332;28;20228;-82
2022/11/28 08:17:47;;;;;;;23.70;16.48;;;6.30;99.90;;;;;;5080377;28;20228;-80
2022/11/28 08:20:15;;;;;;;25.15;15.93;;;6.30;99.90;;;;;;5080280;28;20232;-81
2022/11/28 08:22:42;;;;;;;25.70;18.45;;;6.20;99.90;;;;;;5079862;28;20256;-80
2022/11/28 08:25:11;;;;;;;23.98;17.98;;;6.20;99.90;;;;;;5080567;28;20228;-80
2022/11/28 08:27:38;;;;;;;23.02;16.85;;;6.10;99.90;;;;;;5081652;28;20232;-80
2022/11/28 08:30:07;;;;;;;25.80;18.80;;;6.00;99.90;;;;;;5082097;28;20224;-80
2022/11/28 08:32:34;;;;;;;23.48;17.00;;;6.00;99.90;;;;;;5082086;28;20220;-80
2022/11/28 08:35:01;;;;;;;24.38;18.50;;;6.00;99.90;;;;;;5083565;28;20231;-81
2022/11/28 08:37:37;;;;;;;25.90;20.40;;;6.00;99.90;;;;;;5072692;28;20235;-82
2022/11/28 08:40:06;;;;;;;24.58;16.73;;;6.00;99.90;;;;;;5084786;28;20228;-83
2022/11/28 08:42:35;;;;;;;28.17;17.70;;;6.00;99.90;;;;;;5081681;28;20286;-81
2022/11/28 08:45:16;;;;;;;21.98;16.10;;;6.00;99.90;;;;;;5077821;28;20592;-81
2022/11/28 08:47:43;;;;;;;23.35;19.05;;;6.00;99.90;;;;;;5079892;28;20281;-83
2022/11/28 08:50:10;;;;;;;21.88;16.75;;;6.10;99.90;;;;;;5079718;28;20227;-83
2022/11/28 08:52:39;;;;;;;27.67;18.38;;;6.10;99.90;;;;;;5083015;28;20228;-82
2022/11/28 08:55:07;;;;;;;18.45;14.38;;;6.10;99.90;;;;;;5065188;28;20246;-81
2022/11/28 08:58:26;;;;;;;27.17;18.65;;;6.10;99.90;;;;;;5076815;28;20220;-82
2022/11/28 09:00:55;;;;;;;23.23;16.20;;;6.10;99.90;;;;;;5076732;28;20224;-80
2022/11/28 09:03:25;;;;;;;30.88;18.38;;;6.10;99.90;;;;;;5067213;28;20614;-83
2022/11/28 09:05:52;;;;;;;23.52;18.13;;;6.10;99.90;;;;;;5075924;28;20299;-80
2022/11/28 09:08:21;;;;;;;25.83;18.50;;;6.10;99.90;;;;;;5075404;28;20577;-81
2022/11/28 09:10:48;;;;;;;29.30;18.75;;;6.10;99.90;;;;;;5076004;28;20673;-80
2022/11/28 09:13:15;;;;;;;24.92;17.02;;;6.20;99.90;;;;;;5064331;28;20239;-81
2022/11/28 09:15:45;;;;;;;27.67;18.02;;;6.20;99.90;;;;;;5074525;28;20663;-81
2022/11/28 09:18:14;;;;;;;21.75;17.35;;;6.30;99.90;;;;;;5075961;28;20224;-80
2022/11/28 09:20:42;;;;;;;26.88;18.63;;;6.40;99.90;;;;;;5075061;28;21581;-82
2022/11/28 09:23:10;;;;;;;25.55;18.95;;;6.40;99.90;;;;;;5076091;28;20315;-83
2022/11/28 09:25:46;;;;;;;26.98;17.77;;;6.40;99.90;;;;;;5078193;28;20224;-80
2022/11/28 09:28:31;;;;;;;25.48;17.52;;;6.40;99.90;;;;;;5048168;28;20596;-81
2022/11/28 09:31:05;;;;;;;24.58;17.65;;;6.40;99.90;;;;;;5055554;28;20277;-80
2022/11/28 09:33:33;;;;;;;22.55;17.45;;;6.50;99.90;;;;;;5075334;28;20231;-79
2022/11/28 09:36:04;;;;;;;23.13;17.35;;;6.40;99.90;;;;;;5064226;28;20565;-79
2022/11/28 09:38:31;;;;;;;24.13;17.05;;;6.40;99.90;;;;;;5075310;28;20803;-79
2022/11/28 09:41:02;;;;;;;28.23;17.27;;;6.50;99.90;;;;;;5075624;28;20253;-81
2022/11/28 09:43:34;;;;;;;27.85;18.45;;;6.50;99.90;;;;;;5076163;28;20211;-80
2022/11/28 09:46:05;;;;;;;28.70;18.02;;;6.50;99.90;;;;;;5074896;28;20223;-80
2022/11/28 09:48:40;;;;;;;25.02;17.48;;;6.60;99.90;;;;;;5075618;28;20245;-80
2022/11/28 09:51:24;;;;;;;26.92;16.42;;;6.60;99.90;;;;;;5074534;28;20232;-80
2022/11/28 09:54:09;;;;;;;20.42;15.55;;;6.50;99.90;;;;;;5075127;28;20607;-80
2022/11/28 09:56:40;;;;;;;27.10;17.20;;;6.50;99.90;;;;;;5075880;28;20220;-81
2022/11/28 09:59:17;;;;;;;24.95;18.45;;;6.60;99.90;;;;;;5061478;28;20239;-81
2022/11/28 10:02:14;;;;;;;25.00;17.40;;;6.60;99.90;;;;;;5078508;28;20319;-81
2022/11/28 10:04:50;;;;;;;32.47;23.60;;;6.60;99.90;;;;;;5075171;28;20220;-83
2022/11/28 10:07:23;;;;;;;27.08;23.10;;;6.70;99.90;;;;;;5075216;28;20216;-83
2022/11/28 10:09:59;;;;;;;28.27;20.83;;;6.70;99.90;;;;;;5074609;28;20231;-80
2022/11/28 10:12:37;;;;;;;28.35;17.80;;;6.70;99.90;;;;;;5074556;28;20228;-83
2022/11/28 10:15:16;;;;;;;24.70;17.63;;;6.80;99.90;;;;;;5075466;28;20285;-83
2022/11/28 10:17:54;;;;;;;22.80;17.92;;;6.90;99.90;;;;;;5075215;28;20265;-83
2022/11/28 10:20:25;;;;;;;33.58;18.30;;;7.00;99.90;;;;;;5073979;28;20228;-80
2022/11/28 10:22:57;;;;;;;25.42;18.45;;;7.00;99.90;;;;;;5075398;28;20228;-81
2022/11/28 10:25:31;;;;;;;23.92;17.33;;;7.10;99.90;;;;;;5074343;28;20232;-81
2022/11/28 10:27:59;;;;;;;26.45;16.20;;;7.10;99.90;;;;;;5067095;28;20242;-81
2022/11/28 10:30:32;;;;;;;30.00;19.00;;;7.20;99.90;;;;;;5073367;28;20235;-81
2022/11/28 10:33:14;;;;;;;26.23;17.75;;;7.20;99.90;;;;;;5064525;28;20264;-80
2022/11/28 10:35:57;;;;;;;32.20;17.30;;;7.20;99.90;;;;;;5063808;28;20564;-80
2022/11/28 10:38:26;;;;;;;29.10;17.70;;;7.20;99.90;;;;;;5074298;28;20232;-80
2022/11/28 10:41:00;;;;;;;25.02;16.25;;;7.30;99.90;;;;;;5074615;28;20240;-80
2022/11/28 10:43:46;;;;;;;27.27;19.17;;;7.20;99.90;;;;;;5074256;28;20227;-81
2022/11/28 10:46:43;;;;;;;29.73;17.83;;;7.20;99.90;;;;;;5069144;28;20312;-81
2022/11/28 10:49:24;;;;;;;29.85;18.88;;;7.10;99.90;;;;;;5070343;28;20260;-80
2022/11/28 10:52:07;;;;;;;37.80;19.08;;;7.10;99.90;;;;;;5074014;28;20239;-81
2022/11/28 10:54:52;;;;;;;26.08;18.25;;;7.10;99.90;;;;;;5064809;28;20220;-80
2022/11/28 10:57:25;;;;;;;26.80;17.40;;;7.00;99.90;;;;;;5073689;28;20282;-80
2022/11/28 11:00:03;;;;;;;24.73;17.63;;;7.10;99.90;;;;;;5074046;28;20258;-82
2022/11/28 11:02:36;;;;;;;24.17;19.20;;;7.10;99.90;;;;;;5060004;28;20216;-83
2022/11/28 11:05:08;;;;;;;29.00;18.73;;;7.20;99.90;;;;;;5074240;28;20244;-82
2022/11/28 11:07:37;;;;;;;31.15;17.70;;;7.30;99.90;;;;;;5072827;28;20242;-83
2022/11/28 11:10:16;;;;;;;26.30;18.40;;;7.30;99.90;;;;;;5073127;28;20633;-83
2022/11/28 11:12:47;;;;;;;24.58;18.25;;;7.30;99.90;;;;;;5075125;28;20223;-82
2022/11/28 11:15:24;;;;;;;23.50;17.88;;;7.20;99.90;;;;;;5074786;28;20224;-80
2022/11/28 11:17:52;;;;;;;25.45;18.80;;;7.30;99.90;;;;;;5065233;28;20561;-83
2022/11/28 11:20:52;;;;;;;24.83;18.85;;;7.30;99.90;;;;;;5063236;28;20236;-83
2022/11/28 11:23:23;;;;;;;25.30;18.27;;;7.40;99.90;;;;;;5072591;28;20223;-81
2022/11/28 11:25:53;;;;;;;26.83;16.75;;;7.40;99.90;;;;;;5073658;28;20330;-81
2022/11/28 11:28:39;;;;;;;27.23;19.45;;;7.50;99.90;;;;;;5073265;28;20227;-81
2022/11/28 11:31:26;;;;;;;26.95;17.17;;;7.50;99.90;;;;;;5071989;28;20223;-81
2022/11/28 11:34:02;;;;;;;24.90;18.38;;;7.50;99.90;;;;;;5076325;28;20196;-81
2022/11/28 11:36:31;;;;;;;24.17;17.15;;;7.50;99.90;;;;;;5073361;28;20246;-81
2022/11/28 11:39:20;;;;;;;23.05;15.93;;;7.50;99.90;;;;;;5071948;28;20224;-81
2022/11/28 11:42:22;;;;;;;27.38;17.70;;;7.60;99.90;;;;;;5070274;28;20399;-81
2022/11/28 11:44:49;;;;;;;24.55;17.20;;;7.60;99.90;;;;;;5073619;28;20306;-80
2022/11/28 11:47:16;;;;;;;24.38;17.55;;;7.60;99.90;;;;;;5072630;28;20734;-80
2022/11/28 11:49:46;;;;;;;24.25;17.90;;;7.60;99.90;;;;;;5071977;28;20331;-80
2022/11/28 11:52:21;;;;;;;21.70;16.90;;;7.70;99.90;;;;;;5072061;28;20216;-80
2022/11/28 11:54:59;;;;;;;26.65;17.15;;;7.70;99.90;;;;;;5062747;28;20722;-80
2022/11/28 11:57:37;;;;;;;24.25;17.60;;;7.80;99.90;;;;;;5061782;28;20231;-80
2022/11/28 12:03:39;;;;;;;19.83;15.13;;;7.90;99.90;;;;;;5043661;28;20218;-81
2022/11/28 12:06:13;;;;;;;22.73;17.80;;;7.90;99.90;;;;;;5054972;28;20751;-80
2022/11/28 12:08:45;;;;;;;26.45;16.75;;;7.90;99.90;;;;;;5071503;28;20220;-80
2022/11/28 12:11:20;;;;;;;31.20;18.35;;;7.90;99.90;;;;;;5062966;28;20466;-83
2022/11/28 12:13:51;;;;;;;20.85;16.15;;;7.90;99.90;;;;;;5072978;28;20241;-83
2022/11/28 12:16:56;;;;;;;26.77;16.50;;;7.90;99.90;;;;;;5072668;28;20328;-83
2022/11/28 12:19:36;;;;;;;17.38;13.90;;;7.90;99.90;;;;;;5071755;28;20234;-83
2022/11/28 12:22:15;;;;;;;20.00;13.52;;;7.80;99.90;;;;;;5072444;28;20563;-82
2022/11/28 12:24:56;;;;;;;17.98;13.77;;;7.70;99.90;;;;;;5073059;28;20220;-79
2022/11/28 12:27:35;;;;;;;23.88;16.75;;;7.70;99.90;;;;;;5073107;28;20223;-80
2022/11/28 12:30:17;;;;;;;19.83;15.48;;;7.70;99.90;;;;;;5063345;28;20220;-80
2022/11/28 12:33:10;;;;;;;22.92;16.60;;;7.70;99.90;;;;;;5073266;28;20231;-82
2022/11/28 12:35:41;;;;;;;22.92;15.95;;;7.80;99.90;;;;;;5058116;28;20248;-79
2022/11/28 12:38:30;;;;;;;23.35;16.10;;;7.80;99.90;;;;;;5061335;28;20726;-79
2022/11/28 12:41:14;;;;;;;22.38;14.80;;;7.80;99.90;;;;;;5072127;28;20538;-79
2022/11/28 12:43:55;;;;;;;25.17;15.95;;;7.90;99.90;;;;;;5071514;28;20248;-80
2022/11/28 12:46:32;;;;;;;21.20;15.18;;;7.80;99.90;;;;;;5060618;28;20605;-82
2022/11/28 12:49:15;;;;;;;26.83;17.00;;;7.80;99.90;;;;;;5059872;28;20567;-80
2022/11/28 12:51:57;;;;;;;22.48;15.77;;;7.80;99.90;;;;;;5072395;28;20240;-80
2022/11/28 12:58:11;;;;;;;23.55;15.82;;;8.00;99.90;;;;;;4936041;28;20246;-82
2022/11/28 13:00:54;;;;;;;23.52;16.27;;;8.00;99.90;;;;;;4996234;28;20254;-82
2022/11/28 13:03:34;;;;;;;23.50;17.08;;;8.00;99.90;;;;;;5048671;28;20216;-79
2022/11/28 13:06:13;;;;;;;22.02;15.55;;;8.00;99.90;;;;;;5075474;28;20228;-80
2022/11/28 13:08:58;;;;;;;21.33;15.68;;;8.00;99.90;;;;;;5065884;28;20223;-82
2022/11/28 13:11:47;;;;;;;25.55;17.23;;;8.10;99.90;;;;;;5076318;28;20219;-82
2022/11/28 13:14:29;;;;;;;28.98;16.30;;;8.10;99.90;;;;;;5058260;28;20273;-83
2022/11/28 13:17:19;;;;;;;22.98;16.20;;;8.10;99.90;;;;;;5075851;28;20287;-80
2022/11/28 13:19:52;;;;;;;28.55;18.23;;;8.20;99.90;;;;;;5065809;28;20598;-81
2022/11/28 13:22:23;;;;;;;27.10;18.60;;;8.30;99.90;;;;;;5074622;28;20240;-81
2022/11/28 13:25:37;;;;;;;29.77;19.23;;;8.40;99.90;;;;;;5075377;28;20238;-81